Flight Track Log - Related Links

Times and Time Zones

All times are in EDT time to prevent confusion due to time zone crossing. See the UAL1145 flight status page for this flight to view local times or setup timezone preferences in your user account.

Time Position Orientation Groundspeed Altitude Reporting Facility
EDT Latitude Longitude Course Direction KTS MPH feet Rate Location/Type
Wed 08:15:24 PM 36.1086 -115.1494 45° Northeast 165 190 3,600  Level Los Angeles Center
Wed 08:15:55 PM 36.1292 -115.1242 45° Northeast 216 249 4,500 2,533 Climbing Los Angeles Center
Wed 08:16:54 PM 36.1367 -115.0389 84° East 265 305 7,400 2,727 Climbing Los Angeles Center
Wed 08:17:56 PM 36.1458 -114.9397 83° East 284 327 10,000 2,419 Climbing Los Angeles Center
Wed 08:18:58 PM 36.1239 -114.8244 103° East 346 398 12,400 2,613 Climbing Los Angeles Center
Wed 08:20:00 PM 36.0983 -114.7011 104° East 368 423 15,400 2,274 Climbing Los Angeles Center
Wed 08:21:02 PM 36.0689 -114.5697 105° East 395 455 17,100 2,032 Climbing Los Angeles Center
Wed 08:22:04 PM 36.0319 -114.3983 105° East 431 496 19,600 2,129 Climbing Los Angeles Center
Wed 08:23:06 PM 35.9994 -114.2475 105° East 450 518 21,500 1,776 Climbing Los Angeles Center
Wed 08:24:09 PM 35.9650 -114.0925 105° East 466 536 23,300 1,536 Climbing Los Angeles Center
Wed 08:25:11 PM 35.9292 -113.9314 105° East 483 556 24,700 1,258 Climbing Los Angeles Center
Wed 08:26:13 PM 35.8933 -113.7644 105° East 499 574 25,900 1,258 Climbing Los Angeles Center
Wed 08:27:15 PM 35.8553 -113.5694 103° East 515 593 27,300 1,355 Climbing Los Angeles Center
Wed 08:28:17 PM 35.8181 -113.3919 104° East 531 611 28,700 1,355 Climbing Los Angeles Center
Wed 08:29:19 PM 35.7814 -113.2133 104° East 535 616 30,100 1,694 Climbing Los Angeles Center
Wed 08:30:21 PM 35.7444 -113.0361 104° East 533 613 32,200 1,452 Climbing Los Angeles Center
Wed 08:31:23 PM 35.7067 -112.8611 105° East 527 606 33,100 629 Climbing Los Angeles Center
Wed 08:32:25 PM 35.6644 -112.6628 105° East 542 624 33,500 581 Climbing Los Angeles Center
Wed 08:33:27 PM 35.6281 -112.4919 105° East 558 642 34,300 769 Climbing Los Angeles Center
Wed 08:34:22 PM 35.5808 -112.3075 107° East 565 650 35,000 359 Climbing Albuquerque Center
Wed 08:35:24 PM 35.5186 -112.1319 113° Southeast 565 650 35,000  Level Albuquerque Center
Wed 08:36:26 PM 35.4481 -111.9681 118° Southeast 547 629 35,000  Level Albuquerque Center
Wed 08:37:28 PM 35.3594 -111.8214 127° Southeast 537 618 35,000  Level Albuquerque Center
Wed 08:38:30 PM 35.2644 -111.6625 126° Southeast 540 621 35,000  Level Albuquerque Center
Wed 08:39:32 PM 35.1761 -111.5147 126° Southeast 538 619 35,000  Level Albuquerque Center
Wed 08:40:34 PM 35.0703 -111.3358 126° Southeast 540 621 35,000  Level Albuquerque Center
Wed 08:41:36 PM 34.9800 -111.1881 127° Southeast 541 623 35,000  Level Albuquerque Center
Wed 08:42:37 PM 34.8917 -111.0392 126° Southeast 541 623 35,000 341 Level Albuquerque Center
Wed 08:43:39 PM 34.8014 -110.8914 127° Southeast 543 625 35,700 774 Climbing Albuquerque Center
Wed 08:44:41 PM 34.7125 -110.7475 127° Southeast 537 618 36,600 629 Climbing Albuquerque Center
Wed 08:45:43 PM 34.6169 -110.5861 126° Southeast 529 609 37,000 192 Climbing Albuquerque Center
Wed 08:46:46 PM 34.5372 -110.4578 127° Southeast 532 612 37,000  Level Albuquerque Center
Wed 08:47:47 PM 34.4294 -110.2808 126° Southeast 543 625 37,000  Level Albuquerque Center
Wed 08:48:49 PM 34.3428 -110.1411 127° Southeast 544 626 37,000  Level Albuquerque Center
Wed 08:49:51 PM 34.2419 -109.9772 127° Southeast 544 626 37,000  Level Albuquerque Center
Wed 08:50:53 PM 34.1544 -109.8389 127° Southeast 543 625 37,000  Level Albuquerque Center
Wed 08:51:55 PM 34.0522 -109.6750 127° Southeast 545 627 37,000  Level Albuquerque Center
Wed 08:52:57 PM 33.9700 -109.5439 127° Southeast 545 627 37,000  Level Albuquerque Center
Wed 08:54:00 PM 33.8711 -109.4088 131° Southeast  Level FlightAware Approximate
Wed 08:55:01 PM 33.7853 -109.2522 131° Southeast 551 634 37,000  Level Albuquerque Center
Wed 08:56:03 PM 33.6733 -109.0781 128° Southeast 552 635 37,000  Level Albuquerque Center
Wed 08:57:04 PM 33.5808 -108.9333 127° Southeast 549 632 37,000  Level Albuquerque Center
Wed 08:58:06 PM 33.4872 -108.7872 128° Southeast 552 635 37,000  Level Albuquerque Center
Wed 08:59:08 PM 33.3925 -108.6408 128° Southeast 555 639 37,000  Level Albuquerque Center
Wed 09:00:10 PM 33.2975 -108.4956 128° Southeast 554 638 37,000  Level Albuquerque Center
Wed 09:01:12 PM 33.2019 -108.3489 128° Southeast 558 642 37,000  Level Albuquerque Center
Wed 09:02:14 PM 33.0869 -108.1731 128° Southeast 561 646 37,000  Level Albuquerque Center
Wed 09:03:15 PM 32.9969 -108.0372 128° Southeast 560 644 37,000 -49 Level Albuquerque Center
Wed 09:04:17 PM 32.9003 -107.8911 128° Southeast 561 646 36,900  Descending Albuquerque Center
Wed 09:05:19 PM 32.8056 -107.7469 128° Southeast 557 641 37,000 48 Climbing Albuquerque Center
Wed 09:06:21 PM 32.7319 -107.5353 112° Southeast 574 661 37,000  Level Albuquerque Center
Wed 09:07:23 PM 32.6886 -107.3822 109° East 582 670 37,000  Level Albuquerque Center
Wed 09:08:25 PM 32.6281 -107.1731 109° East 578 665 37,000  Level Albuquerque Center
Wed 09:09:27 PM 32.5706 -106.9856 110° East 567 652 37,000 -488 Level Albuquerque Center
Wed 09:10:28 PM 32.5206 -106.8114 109° East 564 649 36,000 -1,024 Descending Albuquerque Center
Wed 09:11:30 PM 32.4650 -106.6294 110° East 582 670 34,900 -484 Descending Albuquerque Center
Wed 09:12:32 PM 32.4078 -106.4431 110° East 599 689 35,000 48 Climbing Albuquerque Center
Wed 09:13:34 PM 32.3417 -106.2286 110° East 603 694 35,000  Level Albuquerque Center
Wed 09:14:36 PM 32.2936 -106.0711 110° East 597 687 35,000 -48 Level Albuquerque Center
Wed 09:15:38 PM 32.2367 -105.8892 110° East 592 681 34,900  Descending Albuquerque Center
Wed 09:16:39 PM 32.1686 -105.6725 110° East 588 677 35,000  Climbing Albuquerque Center
Wed 09:17:41 PM 32.1117 -105.4903 110° East 590 679 34,900  Descending Albuquerque Center
Wed 09:18:43 PM 32.0547 -105.3089 110° East 590 679 35,000  Climbing Albuquerque Center
Wed 09:19:45 PM 31.9969 -105.1300 111° Southeast 585 673 34,900  Descending Albuquerque Center
Wed 09:20:46 PM 31.9389 -104.9467 110° East 592 681 35,000  Climbing Albuquerque Center
Wed 09:21:48 PM 31.8811 -104.7636 110° East 594 684 34,900  Descending Albuquerque Center
Wed 09:22:50 PM 31.8225 -104.5831 111° Southeast 592 681 35,000  Climbing Albuquerque Center
Wed 09:23:52 PM 31.7636 -104.4022 111° Southeast 591 680 34,900 -49 Descending Albuquerque Center
Wed 09:24:53 PM 31.6933 -104.1881 111° Southeast 589 678 34,900 49 Level Albuquerque Center
Wed 09:25:55 PM 31.6347 -104.0108 111° Southeast 585 673 35,000  Climbing Albuquerque Center
Wed 09:26:57 PM 31.5767 -103.8292 111° Southeast 588 677 34,900  Descending Albuquerque Center
Wed 09:27:59 PM 31.5169 -103.6533 112° Southeast 587 676 35,000 49 Climbing Albuquerque Center
Wed 09:29:00 PM 31.4550 -103.4733 112° Southeast 592 681 35,000 -49 Level Albuquerque Center
Wed 09:30:02 PM 31.3936 -103.2944 112° Southeast 595 685 34,900  Descending Albuquerque Center
Wed 09:31:04 PM 31.3350 -103.1172 111° Southeast 589 678 35,000 48 Climbing Albuquerque Center
Wed 09:32:06 PM 31.2628 -102.9072 112° Southeast 586 674 35,000 -48 Level Albuquerque Center
Wed 09:33:08 PM 31.2042 -102.7356 112° Southeast 577 664 34,900  Descending Albuquerque Center
Wed 09:34:09 PM 31.1442 -102.5650 112° Southeast 576 663 35,000 49 Climbing Albuquerque Center
Wed 09:35:11 PM 31.0878 -102.3950 111° Southeast 575 662 35,000  Level Albuquerque Center
Wed 09:36:13 PM 31.0306 -102.2308 112° Southeast 558 642 35,000 -48 Level Albuquerque Center
Wed 09:37:15 PM 30.9619 -102.0389 113° Southeast 550 633 34,900  Descending Albuquerque Center
Wed 09:38:17 PM 30.9047 -101.8744 112° Southeast 550 633 35,000 31 Climbing Albuquerque Center
Wed 09:40:29 PM 30.7789 -101.5169 112° Southeast 563 648 35,000  Level Houston Center
Wed 09:41:31 PM 30.7164 -101.3444 113° Southeast 575 662 35,000  Level Houston Center
Wed 09:42:32 PM 30.6550 -101.1708 112° Southeast 581 669 35,000  Level Houston Center
Wed 09:43:33 PM 30.5825 -100.9619 112° Southeast 585 673 35,000  Level Houston Center
Wed 09:44:35 PM 30.5192 -100.7903 113° Southeast 579 666 35,000 -49 Level Houston Center
Wed 09:45:36 PM 30.4564 -100.6178 113° Southeast 579 666 34,900 -49 Descending Houston Center
Wed 09:46:38 PM 30.3958 -100.4494 113° Southeast 570 656 34,900 49 Level Houston Center
Wed 09:47:39 PM 30.3336 -100.2822 113° Southeast 561 646 35,000 49 Climbing Houston Center
Wed 09:48:40 PM 30.2728 -100.1164 113° Southeast 555 639 35,000 -49 Level Houston Center
Wed 09:49:42 PM 30.2114 -99.9525 113° Southeast 548 631 34,900 -49 Descending Houston Center
Wed 09:50:43 PM 30.1522 -99.7925 113° Southeast 540 621 34,900 49 Level Houston Center
Wed 09:51:44 PM 30.0917 -99.6364 114° Southeast 532 612 35,000 -484 Climbing Houston Center
Wed 09:52:47 PM 30.0344 -99.4808 113° Southeast 526 605 33,900 -1,415 Descending Houston Center
Wed 09:53:47 PM 29.9767 -99.3281 114° Southeast 519 597 32,100 -1,388 Descending Houston Center
Wed 09:54:48 PM 29.9181 -99.1742 114° Southeast 524 603 31,100 -541 Descending Houston Center
Wed 09:55:49 PM 29.8486 -98.9931 114° Southeast 537 618 31,000 -49 Descending Houston Center
Wed 09:56:50 PM 29.8097 -98.8100 104° East 547 629 31,000  Level Houston Center
Wed 09:57:52 PM 29.7950 -98.6342 95° East 550 633 31,000  Level Houston Center
Wed 09:58:53 PM 29.7789 -98.4628 96° East 551 634 31,000  Level Houston Center
Wed 09:59:54 PM 29.7614 -98.2803 96° East 554 638 31,000  Level Houston Center
Wed 10:00:55 PM 29.7442 -98.1028 96° East 555 639 31,000  Level Houston Center
Wed 10:01:56 PM 29.7258 -97.9133 96° East 553 636 31,000 -49 Level Houston Center
Wed 10:02:58 PM 29.7103 -97.7567 96° East 559 643 30,900 -146 Descending Houston Center
Wed 10:03:59 PM 29.6931 -97.5811 96° East 555 639 30,700 -590 Descending Houston Center
Wed 10:05:00 PM 29.6753 -97.4056 97° East 554 638 29,700 -1,623 Descending Houston Center
Wed 10:06:01 PM 29.6575 -97.2278 97° East 557 641 27,400 -2,585 Descending Houston Center
Wed 10:07:03 PM 29.6400 -97.0500 96° East 556 640 24,400 -2,634 Descending Houston Center
Wed 10:08:04 PM 29.6214 -96.8797 97° East 536 617 22,000 -2,361 Descending Houston Center
Wed 10:09:05 PM 29.6056 -96.7236 97° East 499 574 19,600 -2,618 Descending Houston Center
Wed 10:09:54 PM 29.5894 -96.5889 98° East 432 497 17,200 -2,615 Descending Houston Center
Wed 10:11:02 PM 29.5750 -96.4394 96° East 420 483 14,500 -2,438 Descending Houston Center
Wed 10:12:02 PM 29.5572 -96.3044 99° East 409 471 12,000 -2,231 Descending Houston Center
Wed 10:13:03 PM 29.5489 -96.1806 94° East 390 449 10,000 -1,125 Descending Houston Center
Wed 10:14:10 PM 29.6011 -96.0811 59° Northeast 328 377 9,600 -605 Descending Houston Center
Wed 10:15:12 PM 29.6758 -96.0219 35° Northeast 330 380 8,700 -885 Descending Houston Center
Wed 10:16:12 PM 29.7564 -95.9578 35° Northeast 326 375 7,800 -887 Descending Houston Center
Wed 10:17:07 PM 29.8067 -95.8869 51° Northeast 304 350 7,000 -730 Descending Houston Center
Wed 10:18:07 PM 29.8589 -95.8111 52° Northeast 301 346 6,400 -945 Descending Houston Center
Wed 10:19:14 PM 29.9033 -95.7217 60° Northeast 291 335 5,000 -1,266 Descending Houston Center
Wed 10:20:15 PM 29.9422 -95.6400 61° Northeast 290 334 3,700 -1,034 Descending Houston Center
Wed 10:21:10 PM 29.9758 -95.5686 61° Northeast 274 315 3,000 -764 Descending Houston Center

Login

Don't have an account? Register now (free) for customized features, flight alerts, and more!